Time;durP1;ratioP1;P1;durP2;ratioP2;P2;SDS_P1;SDS_P2;PMS_P1;PMS_P2;Temp;Humidity;BMP_temperature;BMP_pressure;BME280_temperature;BME280_humidity;BME280_pressure;Samples;Min_cycle;Max_cycle;Signal;HPM_P1;HPM_P2
2022/08/29 00:01:27;;;;;;;;;3.33;1.00;;;;;22.51;37.74;101430.94;5020653;28;45616;-80
2022/08/29 00:03:57;;;;;;;;;2.00;1.00;;;;;22.50;37.69;101431.91;5022309;28;46177;-81
2022/08/29 00:06:22;;;;;;;;;3.33;2.00;;;;;22.44;37.66;101433.91;5022414;28;45213;-80
2022/08/29 00:08:48;;;;;;;;;2.33;2.33;;;;;22.44;37.83;101433.03;5022623;28;45220;-80
2022/08/29 00:11:14;;;;;;;;;2.00;2.00;;;;;22.44;37.83;101441.09;5022211;28;45528;-81
2022/08/29 00:13:40;;;;;;;;;4.00;3.00;;;;;22.41;37.72;101435.84;5022468;28;45543;-80
2022/08/29 00:16:05;;;;;;;;;1.67;1.67;;;;;22.36;37.85;101445.91;5020648;28;45522;-81
2022/08/29 00:18:32;;;;;;;;;0.67;0.00;;;;;22.33;38.13;101444.22;5022181;28;45329;-80
2022/08/29 00:20:57;;;;;;;;;2.00;2.00;;;;;22.29;38.09;101439.03;5020799;28;45727;-80
2022/08/29 00:23:23;;;;;;;;;1.33;1.00;;;;;22.23;37.87;101443.72;5021859;28;45449;-81
2022/08/29 00:25:49;;;;;;;;;1.67;1.67;;;;;22.19;38.13;101435.88;5022077;28;45392;-81
2022/08/29 00:28:14;;;;;;;;;1.67;1.67;;;;;22.17;38.03;101440.41;5021740;28;45426;-81
2022/08/29 00:30:40;;;;;;;;;1.67;1.67;;;;;22.17;38.26;101445.75;5021821;28;45573;-81
2022/08/29 00:33:06;;;;;;;;;2.67;2.00;;;;;22.15;38.17;101440.44;5021677;28;45383;-80
2022/08/29 00:35:35;;;;;;;;;1.00;1.00;;;;;22.15;38.31;101440.44;5021809;28;45304;-81
2022/08/29 00:38:03;;;;;;;;;4.00;1.67;;;;;22.14;38.47;101438.72;5021511;28;45478;-81
2022/08/29 00:40:35;;;;;;;;;2.00;1.00;;;;;22.14;38.47;101440.53;5021507;28;45534;-81
2022/08/29 00:43:01;;;;;;;;;1.67;1.67;;;;;22.14;38.50;101445.91;5019659;28;46506;-81
2022/08/29 00:45:27;;;;;;;;;2.00;2.00;;;;;22.10;38.04;101433.53;5019682;28;45481;-81
2022/08/29 00:48:04;;;;;;;;;1.33;0.67;;;;;22.07;38.46;101436.34;5021027;28;45317;-80
2022/08/29 00:50:38;;;;;;;;;1.00;0.67;;;;;22.09;38.51;101438.03;5019916;28;45186;-80
2022/08/29 00:53:07;;;;;;;;;3.00;2.33;;;;;22.09;38.36;101438.03;5019615;28;47183;-81
2022/08/29 00:55:34;;;;;;;;;1.00;1.00;;;;;22.15;38.46;101439.59;5020697;28;45477;-80
2022/08/29 00:58:09;;;;;;;;;2.00;1.00;;;;;22.15;38.35;101437.75;5020989;28;45284;-80
2022/08/29 01:00:37;;;;;;;;;1.00;1.00;;;;;22.18;38.46;101444.81;5019787;28;45362;-81
2022/08/29 01:03:04;;;;;;;;;2.67;0.67;;;;;22.18;38.07;101436.78;5019337;28;45505;-81
2022/08/29 01:05:30;;;;;;;;;2.67;2.00;;;;;22.20;38.23;101437.63;5008207;28;45208;-81
2022/08/29 01:07:56;;;;;;;;;2.00;2.00;;;;;22.18;38.56;101435.00;5001226;28;45551;-81
2022/08/29 01:13:08;;;;;;;;;1.67;1.67;;;;;22.13;38.43;101428.94;5009102;28;45280;-80
2022/08/29 01:15:35;;;;;;;;;1.00;0.67;;;;;22.14;38.27;101425.31;5019219;28;45340;-81
2022/08/29 01:18:03;;;;;;;;;2.00;1.00;;;;;22.13;38.33;101430.72;5019105;28;45497;-80
2022/08/29 01:20:35;;;;;;;;;2.00;1.00;;;;;22.13;38.55;101431.63;5019246;28;45475;-80
2022/08/29 01:23:17;;;;;;;;;3.00;3.00;;;;;22.12;38.46;101435.22;5020633;28;45405;-80
2022/08/29 01:25:49;;;;;;;;;1.67;0.00;;;;;22.08;38.61;101430.03;5020479;28;45407;-80
2022/08/29 01:28:18;;;;;;;;;1.67;0.67;;;;;22.08;38.29;101430.03;5020812;28;45339;-80
2022/08/29 01:30:59;;;;;;;;;3.00;3.00;;;;;22.06;38.71;101429.25;5019132;28;45453;-80
2022/08/29 01:33:26;;;;;;;;;2.33;2.33;;;;;22.03;38.55;101428.41;5018968;28;47909;-80
2022/08/29 01:35:51;;;;;;;;;2.33;1.00;;;;;22.03;38.44;101425.75;5012613;28;45292;-80
2022/08/29 01:38:26;;;;;;;;;1.00;1.00;;;;;21.98;38.24;101422.38;5000436;28;45221;-80
2022/08/29 01:40:57;;;;;;;;;2.00;2.00;;;;;21.96;38.48;101436.78;4999126;28;45462;-80
2022/08/29 01:43:23;;;;;;;;;1.00;1.00;;;;;21.91;38.66;101428.03;5012527;28;46980;-81
2022/08/29 01:45:49;;;;;;;;;3.00;1.33;;;;;21.85;38.82;101430.97;4999160;28;46502;-80
2022/08/29 01:48:15;;;;;;;;;2.00;1.00;;;;;21.85;39.12;101437.19;5017181;28;45240;-80
2022/08/29 01:50:41;;;;;;;;;2.00;2.00;;;;;21.78;38.85;101428.53;5019047;28;45516;-80
2022/08/29 01:53:06;;;;;;;;;1.00;1.00;;;;;21.82;38.80;101434.66;5018910;28;48399;-80
2022/08/29 01:55:32;;;;;;;;;2.00;2.00;;;;;21.83;38.89;101425.66;5020031;28;45391;-80
2022/08/29 01:57:57;;;;;;;;;0.33;0.33;;;;;21.85;38.54;101423.81;5020107;28;45216;-80
2022/08/29 02:00:24;;;;;;;;;3.33;2.67;;;;;21.85;38.97;101425.63;5019872;28;45410;-80
2022/08/29 02:02:50;;;;;;;;;2.00;1.00;;;;;21.82;38.90;101431.09;5001802;28;48105;-80
2022/08/29 02:05:16;;;;;;;;;1.33;1.00;;;;;21.80;39.35;101423.09;5000347;28;45462;-80
2022/08/29 02:07:41;;;;;;;;;1.33;1.33;;;;;21.81;39.14;101432.88;4998632;28;45359;-80
2022/08/29 02:10:07;;;;;;;;;2.33;1.00;;;;;21.77;39.16;101415.19;4999074;28;45459;-80
2022/08/29 02:12:34;;;;;;;;;1.33;1.33;;;;;21.73;39.30;101417.13;4999268;28;47631;-80
2022/08/29 02:14:59;;;;;;;;;1.00;1.00;;;;;21.71;39.43;101412.75;4999491;28;45423;-80
2022/08/29 02:17:24;;;;;;;;;1.00;1.00;;;;;21.69;39.63;101419.97;4999425;28;45181;-79
2022/08/29 02:19:50;;;;;;;;;0.67;0.67;;;;;21.65;39.53;101415.66;4999668;28;45619;-80
2022/08/29 02:22:16;;;;;;;;;1.00;0.67;;;;;21.61;39.26;101414.91;5000280;28;45300;-80
2022/08/29 02:24:41;;;;;;;;;3.00;3.00;;;;;21.61;39.21;101420.28;5000365;28;45347;-80
2022/08/29 02:27:08;;;;;;;;;1.00;1.00;;;;;21.61;39.45;101409.56;4999162;28;45427;-80
2022/08/29 02:29:34;;;;;;;;;3.00;3.00;;;;;21.59;39.39;101417.66;5000406;28;45256;-80
2022/08/29 02:32:01;;;;;;;;;1.33;1.33;;;;;21.58;39.26;101413.22;4999819;28;45508;-79
2022/08/29 02:34:29;;;;;;;;;2.50;2.50;;;;;21.54;39.65;101414.28;4999005;28;45494;-80
2022/08/29 02:36:55;;;;;;;;;4.33;3.00;;;;;21.53;39.61;101415.22;4998662;28;45273;-80
2022/08/29 02:39:21;;;;;;;;;3.67;0.67;;;;;21.50;39.53;101412.66;4998705;28;45253;-80
2022/08/29 02:41:46;;;;;;;;;3.00;2.00;;;;;21.50;39.84;101417.16;4999537;28;45961;-80
2022/08/29 02:44:11;;;;;;;;;1.67;1.67;;;;;21.45;39.79;101419.13;4999957;28;45285;-80
2022/08/29 02:46:37;;;;;;;;;3.00;3.00;;;;;21.42;39.65;101413.88;5002646;28;45260;-80
2022/08/29 02:49:03;;;;;;;;;1.33;1.00;;;;;21.38;39.69;101415.78;5019479;28;45547;-80
2022/08/29 02:51:31;;;;;;;;;2.33;1.67;;;;;21.40;39.95;101421.09;5020316;28;47004;-80
2022/08/29 02:53:57;;;;;;;;;1.67;1.00;;;;;21.35;39.97;101408.72;5021371;28;45418;-81
2022/08/29 02:56:22;;;;;;;;;1.00;1.00;;;;;21.37;40.05;101416.69;5021422;28;45414;-80
2022/08/29 02:58:49;;;;;;;;;1.33;1.33;;;;;21.39;40.04;101408.66;5022676;28;45482;-81
2022/08/29 03:01:16;;;;;;;;;2.33;1.33;;;;;21.36;40.06;101412.28;5020909;28;47423;-80
2022/08/29 03:03:41;;;;;;;;;1.00;1.00;;;;;21.36;40.31;101409.59;5022772;28;45332;-80
2022/08/29 03:06:07;;;;;;;;;1.67;1.67;;;;;21.38;39.96;101413.13;5021418;28;45307;-80
2022/08/29 03:08:33;;;;;;;;;1.00;1.00;;;;;21.35;39.89;101400.69;5021477;28;45300;-80
2022/08/29 03:10:59;;;;;;;;;2.33;2.00;;;;;21.35;40.38;101403.34;5021181;28;46847;-80
2022/08/29 03:13:25;;;;;;;;;3.67;2.33;;;;;21.30;39.93;101396.44;5021426;28;45513;-80
2022/08/29 03:15:50;;;;;;;;;2.00;2.00;;;;;21.33;40.09;101402.56;5022423;28;45438;-81
2022/08/29 03:18:17;;;;;;;;;0.33;0.33;;;;;21.31;40.23;101395.50;5021380;28;45628;-80
2022/08/29 03:20:44;;;;;;;;;4.33;1.67;;;;;21.30;39.98;101401.78;5021196;28;46344;-80
2022/08/29 03:23:10;;;;;;;;;2.00;2.00;;;;;21.27;39.92;101396.53;5021265;28;45249;-80
2022/08/29 03:25:35;;;;;;;;;1.67;1.33;;;;;21.26;40.32;101403.72;5021106;28;45288;-80
2022/08/29 03:28:01;;;;;;;;;2.00;2.00;;;;;21.21;40.21;101402.16;5022435;28;45255;-80
2022/08/29 03:30:28;;;;;;;;;1.00;1.00;;;;;21.20;40.40;101403.97;5021969;28;46485;-81
2022/08/29 03:32:54;;;;;;;;;2.33;2.00;;;;;21.21;40.64;101404.81;5022269;28;45254;-80
2022/08/29 03:35:21;;;;;;;;;1.67;1.67;;;;;21.16;40.57;101402.31;5020824;28;45386;-81
2022/08/29 03:37:47;;;;;;;;;2.00;2.00;;;;;21.13;40.54;101397.94;5020919;28;45674;-80
2022/08/29 03:40:12;;;;;;;;;1.00;1.00;;;;;21.12;40.69;101398.00;5022013;28;45986;-80
2022/08/29 03:42:38;;;;;;;;;1.33;1.33;;;;;21.11;40.82;101393.56;5022461;28;45422;-80
2022/08/29 03:45:09;;;;;;;;;3.33;3.00;;;;;21.14;40.68;101401.47;5022178;28;45275;-80
2022/08/29 03:47:34;;;;;;;;;2.00;2.00;;;;;21.13;40.48;101397.06;5020216;28;46494;-80
2022/08/29 03:50:00;;;;;;;;;4.00;4.00;;;;;21.05;40.93;101381.28;5020323;28;46369;-80
2022/08/29 03:52:25;;;;;;;;;2.33;2.00;;;;;21.02;40.73;101385.88;5021968;28;45371;-80
2022/08/29 03:54:51;;;;;;;;;3.00;3.00;;;;;20.96;40.84;101384.31;5021883;28;45509;-80
2022/08/29 03:57:19;;;;;;;;;2.00;2.00;;;;;21.01;40.89;101395.72;5021732;28;45415;-80
2022/08/29 03:59:47;;;;;;;;;2.00;2.00;;;;;20.98;41.14;101393.13;5020236;28;46477;-80
2022/08/29 04:02:13;;;;;;;;;0.67;0.67;;;;;20.96;41.11;101402.19;5020455;28;45341;-80
2022/08/29 04:07:23;;;;;;;;;1.33;1.00;;;;;20.93;41.38;101397.81;5021538;28;45403;-80
2022/08/29 04:09:48;;;;;;;;;0.67;0.67;;;;;20.91;41.08;101402.34;5020361;28;47154;-81
2022/08/29 04:12:14;;;;;;;;;1.67;1.67;;;;;20.96;41.51;101404.88;5020280;28;45475;-80
2022/08/29 04:14:40;;;;;;;;;2.00;1.67;;;;;20.98;41.40;101411.00;5021977;28;45367;-81
2022/08/29 04:17:07;;;;;;;;;2.67;2.67;;;;;20.92;41.47;101401.41;5019725;28;45803;-80
2022/08/29 04:19:34;;;;;;;;;1.67;1.67;;;;;20.95;41.17;101403.09;5021432;28;45459;-80
2022/08/29 04:21:59;;;;;;;;;2.00;2.00;;;;;20.93;41.18;101396.00;5020006;28;45261;-80
2022/08/29 04:24:25;;;;;;;;;3.00;3.00;;;;;20.89;41.68;101382.78;5013481;28;45205;-80
2022/08/29 04:26:50;;;;;;;;;2.67;2.33;;;;;20.86;41.63;101386.44;5000032;28;45635;-80
2022/08/29 04:29:16;;;;;;;;;1.67;1.00;;;;;20.88;41.33;101391.75;5000358;28;46209;-80
2022/08/29 04:31:42;;;;;;;;;2.33;2.33;;;;;20.85;41.60;101390.06;5001074;28;45264;-80
2022/08/29 04:34:10;;;;;;;;;2.33;2.00;;;;;20.81;41.19;101384.88;5001628;28;45486;-80
2022/08/29 04:36:40;;;;;;;;;1.00;1.00;;;;;20.81;41.31;101383.06;4999880;28;45518;-80
2022/08/29 04:39:07;;;;;;;;;2.00;1.67;;;;;20.81;41.61;101387.53;4999868;28;48174;-80
2022/08/29 04:41:34;;;;;;;;;1.67;1.67;;;;;20.75;41.50;101395.81;4999985;28;45281;-80
2022/08/29 04:44:01;;;;;;;;;3.00;3.00;;;;;20.71;41.79;101397.69;5001698;28;45515;-80
2022/08/29 04:46:26;;;;;;;;;1.67;1.33;;;;;20.66;41.70;101402.31;5001218;28;45741;-80
2022/08/29 04:48:53;;;;;;;;;1.00;1.00;;;;;20.69;42.09;101403.13;5019831;28;46871;-80
2022/08/29 04:51:19;;;;;;;;;0.67;0.67;;;;;20.64;42.13;101405.06;5019768;28;45867;-80
2022/08/29 04:53:45;;;;;;;;;1.67;1.67;;;;;20.63;41.88;101414.00;5020843;28;45285;-80
2022/08/29 04:56:12;;;;;;;;;3.00;2.00;;;;;20.58;42.14;101420.44;5019086;28;45230;-80
2022/08/29 04:58:40;;;;;;;;;3.00;3.00;;;;;20.63;41.76;101426.53;5010322;28;47032;-80
2022/08/29 05:01:07;;;;;;;;;2.00;2.00;;;;;20.60;41.53;101416.78;5014770;28;45304;-80
2022/08/29 05:03:33;;;;;;;;;2.25;2.25;;;;;20.64;42.08;101429.16;5011755;28;45466;-80
2022/08/29 05:06:01;;;;;;;;;3.25;3.25;;;;;20.61;42.14;101425.69;4999504;28;45542;-80
2022/08/29 05:08:29;;;;;;;;;3.00;3.00;;;;;20.55;41.73;101420.56;5000858;28;45646;-80
2022/08/29 05:10:57;;;;;;;;;3.00;3.00;;;;;20.47;41.85;101420.78;4999451;28;45480;-80
2022/08/29 05:13:22;;;;;;;;;2.33;1.67;;;;;20.49;42.40;101424.28;5000211;28;45438;-80
2022/08/29 05:15:48;;;;;;;;;1.00;1.00;;;;;20.46;42.29;101432.44;4998518;28;45376;-80
2022/08/29 05:18:17;;;;;;;;;4.50;3.00;;;;;20.50;42.47;101436.72;5000608;28;45574;-80
2022/08/29 05:20:46;;;;;;;;;1.00;1.00;;;;;20.53;42.35;101438.44;4999349;28;45277;-80
2022/08/29 05:23:12;;;;;;;;;2.67;2.00;;;;;20.53;42.45;101442.00;5001049;28;45351;-81
2022/08/29 05:25:38;;;;;;;;;2.67;1.67;;;;;20.61;42.24;101445.31;4998963;28;45514;-80
2022/08/29 05:28:04;;;;;;;;;4.00;2.33;;;;;20.60;42.14;101445.34;5000446;28;46229;-80
2022/08/29 05:30:30;;;;;;;;;4.00;3.00;;;;;20.63;42.16;101445.25;5000261;28;45296;-80
2022/08/29 05:32:56;;;;;;;;;4.33;2.33;;;;;20.65;41.96;101448.75;5000850;28;45291;-80
2022/08/29 05:35:22;;;;;;;;;4.00;4.00;;;;;20.71;42.23;101456.56;5000610;28;45274;-80
2022/08/29 05:37:48;;;;;;;;;3.67;2.67;;;;;20.70;42.64;101454.81;5000665;28;45456;-80
2022/08/29 05:40:14;;;;;;;;;2.33;2.33;;;;;20.72;42.07;101461.00;5000700;28;45255;-80
2022/08/29 05:42:42;;;;;;;;;3.50;3.00;;;;;20.80;41.95;101466.09;4999549;28;45411;-80
2022/08/29 05:45:08;;;;;;;;;4.00;4.00;;;;;20.82;41.78;101472.25;4999330;28;45435;-80
2022/08/29 05:47:34;;;;;;;;;4.00;4.00;;;;;20.84;42.32;101471.28;5009754;28;47041;-79
2022/08/29 05:49:59;;;;;;;;;2.00;2.00;;;;;20.79;41.79;101467.88;5020414;28;45275;-79
2022/08/29 05:52:26;;;;;;;;;4.00;4.00;;;;;20.81;41.79;101474.06;5020684;28;45245;-80
2022/08/29 05:54:52;;;;;;;;;3.00;2.00;;;;;20.81;42.03;101471.38;5018573;28;45256;-80
2022/08/29 05:57:21;;;;;;;;;2.00;1.00;;;;;20.83;41.71;101480.25;5019806;28;45703;-80
2022/08/29 05:59:49;;;;;;;;;2.67;2.67;;;;;20.84;41.74;101465.91;5018492;28;45375;-80
2022/08/29 06:02:15;;;;;;;;;2.67;1.67;;;;;20.82;42.24;101461.53;5019617;28;45233;-81
2022/08/29 06:04:41;;;;;;;;;4.33;3.00;;;;;20.83;41.92;101472.22;5019772;28;45192;-81
2022/08/29 06:07:08;;;;;;;;;3.67;3.00;;;;;20.84;41.77;101479.28;5018451;28;47960;-80
2022/08/29 06:09:34;;;;;;;;;2.00;2.00;;;;;20.87;42.16;101472.97;5019776;28;45232;-81
2022/08/29 06:12:00;;;;;;;;;3.00;3.00;;;;;20.88;41.77;101464.03;5018560;28;45336;-80
2022/08/29 06:14:26;;;;;;;;;2.67;1.33;;;;;20.87;41.47;101475.63;5017717;28;45403;-80
2022/08/29 06:16:52;;;;;;;;;3.67;3.67;;;;;20.88;41.76;101477.41;5006885;28;47199;-80
2022/08/29 06:19:18;;;;;;;;;2.00;2.00;;;;;20.86;41.90;101472.09;5019028;28;45458;-82
2022/08/29 06:21:43;;;;;;;;;2.00;2.00;;;;;20.80;41.81;101466.97;5020091;28;45308;-80
2022/08/29 06:24:09;;;;;;;;;5.00;4.00;;;;;20.85;41.82;101477.50;5018198;28;45371;-81
2022/08/29 06:26:35;;;;;;;;;4.00;2.00;;;;;20.82;41.89;101475.81;5022391;28;45729;-81
2022/08/29 06:29:07;;;;;;;;;2.67;2.00;;;;;20.83;42.15;101482.03;5023038;28;45260;-81
2022/08/29 06:31:33;;;;;;;;;3.00;3.00;;;;;20.80;42.21;101488.38;5021532;28;45445;-81
2022/08/29 06:34:01;;;;;;;;;5.33;3.67;;;;;20.81;42.17;101490.13;5021336;28;45403;-80
2022/08/29 06:36:28;;;;;;;;;3.00;2.00;;;;;20.84;41.90;101497.16;5010090;28;47435;-80
2022/08/29 06:39:06;;;;;;;;;4.33;2.33;;;;;20.80;42.12;101492.88;5003070;28;45443;-80
2022/08/29 06:41:32;;;;;;;;;6.00;4.75;;;;;20.84;41.88;101495.34;5001990;28;45348;-81
2022/08/29 06:43:58;;;;;;;;;4.50;4.50;;;;;20.90;42.11;101504.97;5003180;28;45557;-80
2022/08/29 06:46:28;;;;;;;;;3.00;3.00;;;;;20.90;42.23;101494.25;5003600;28;45558;-80
2022/08/29 06:48:55;;;;;;;;;1.00;1.00;;;;;20.96;42.40;101496.75;5021566;28;45987;-80
2022/08/29 06:51:22;;;;;;;;;4.67;2.33;;;;;20.96;42.04;101499.44;5021486;28;45446;-81
2022/08/29 06:53:47;;;;;;;;;4.33;3.67;;;;;20.93;42.07;101497.72;5021265;28;45768;-81
2022/08/29 06:56:13;;;;;;;;;2.67;2.67;;;;;20.91;42.05;101490.69;5022255;28;46067;-80
2022/08/29 06:58:39;;;;;;;;;5.00;3.67;;;;;20.89;42.27;101482.69;5021386;28;45932;-81
2022/08/29 07:01:09;;;;;;;;;3.67;2.00;;;;;20.94;42.30;101490.56;5019264;28;45256;-80
2022/08/29 07:03:35;;;;;;;;;4.00;4.00;;;;;20.96;42.03;101498.56;5003002;28;45310;-81
2022/08/29 07:06:04;;;;;;;;;2.33;2.33;;;;;20.98;41.94;101502.91;5003276;28;45690;-81
2022/08/29 07:08:30;;;;;;;;;4.00;3.00;;;;;21.00;42.34;101497.50;5002434;28;45230;-81
2022/08/29 07:10:56;;;;;;;;;3.33;2.33;;;;;21.01;42.25;101493.88;5002808;28;45518;-81
2022/08/29 07:13:21;;;;;;;;;4.00;4.00;;;;;21.04;42.02;101493.81;5001291;28;45425;-81
2022/08/29 07:15:46;;;;;;;;;7.33;4.67;;;;;21.10;42.10;101498.94;5000782;28;45290;-81
2022/08/29 07:18:12;;;;;;;;;2.00;2.00;;;;;21.09;42.12;101495.41;5001093;28;45319;-82
2022/08/29 07:20:38;;;;;;;;;3.00;2.33;;;;;21.13;42.41;101502.38;5002747;28;45249;-82
2022/08/29 07:23:05;;;;;;;;;6.33;3.67;;;;;21.15;42.02;101495.16;5001354;28;46279;-80
2022/08/29 07:25:31;;;;;;;;;3.67;2.67;;;;;21.19;42.03;101503.94;5002334;28;45595;-81
2022/08/29 07:27:57;;;;;;;;;2.67;2.67;;;;;21.20;41.99;101502.16;5002360;28;45526;-81
2022/08/29 07:30:22;;;;;;;;;3.67;1.67;;;;;21.22;42.01;101495.81;5000715;28;45534;-81
2022/08/29 07:32:48;;;;;;;;;3.00;3.00;;;;;21.25;41.71;101495.72;5002265;28;45482;-81
2022/08/29 07:35:15;;;;;;;;;3.00;3.00;;;;;21.29;42.01;101488.44;5000974;28;46154;-81
2022/08/29 07:37:41;;;;;;;;;1.67;1.67;;;;;21.33;41.84;101496.31;4999791;28;45470;-81
2022/08/29 07:40:09;;;;;;;;;5.00;5.00;;;;;21.40;41.98;101496.13;5002191;28;45568;-81
2022/08/29 07:42:36;;;;;;;;;4.50;4.50;;;;;21.44;41.56;101501.31;5002145;28;45467;-81
2022/08/29 07:45:03;;;;;;;;;6.00;6.00;;;;;21.47;41.85;101497.66;5001970;28;46187;-81
2022/08/29 07:47:29;;;;;;;;;5.00;4.75;;;;;21.51;41.61;101500.13;5010546;28;45474;-81
2022/08/29 07:49:55;;;;;;;;;5.00;4.00;;;;;21.57;41.87;101507.06;5020913;28;45299;-81
2022/08/29 07:52:20;;;;;;;;;7.00;5.75;;;;;21.59;41.85;101506.06;5021847;28;45294;-81
2022/08/29 07:54:46;;;;;;;;;3.33;3.33;;;;;21.65;41.58;101502.31;5019738;28;47830;-81
2022/08/29 07:57:14;;;;;;;;;3.67;3.00;;;;;21.64;41.66;101497.88;5021422;28;45432;-81
2022/08/29 07:59:40;;;;;;;;;2.00;2.00;;;;;21.71;41.30;101501.22;5020347;28;45407;-81
2022/08/29 08:02:05;;;;;;;;;3.33;3.33;;;;;21.76;41.63;101500.09;5020058;28;45521;-81
2022/08/29 08:04:30;;;;;;;;;7.00;6.00;;;;;21.83;41.62;101500.72;5021641;28;45506;-81
2022/08/29 08:06:56;;;;;;;;;5.00;5.00;;;;;21.88;41.13;101497.88;5020924;28;45481;-81
2022/08/29 08:09:21;;;;;;;;;7.75;6.75;;;;;21.91;41.10;101490.56;5021789;28;45463;-81
2022/08/29 08:11:47;;;;;;;;;7.00;5.25;;;;;21.97;41.47;101495.72;5021576;28;45483;-81
2022/08/29 08:14:13;;;;;;;;;6.75;5.00;;;;;22.02;41.33;101493.72;5021431;28;45415;-81
2022/08/29 08:16:40;;;;;;;;;5.00;5.00;;;;;22.10;41.11;101485.34;5020051;28;45273;-81
2022/08/29 08:19:05;;;;;;;;;3.00;1.33;;;;;22.17;40.75;101483.31;5021352;28;45336;-81
2022/08/29 08:21:31;;;;;;;;;5.67;4.67;;;;;22.28;40.99;101480.22;5021121;28;45493;-82
2022/08/29 08:23:57;;;;;;;;;4.33;3.00;;;;;22.37;40.77;101474.47;5019878;28;47177;-81
2022/08/29 08:26:22;;;;;;;;;5.00;4.67;;;;;22.49;40.55;101481.16;5021189;28;45296;-81
2022/08/29 08:28:48;;;;;;;;;5.67;5.00;;;;;22.53;40.74;101480.94;5021150;28;45374;-81
2022/08/29 08:31:18;;;;;;;;;7.00;5.33;;;;;22.59;39.94;101475.34;5020711;28;45169;-81
2022/08/29 08:33:45;;;;;;;;;7.33;5.33;;;;;22.65;40.21;101472.38;5019162;28;48263;-81
2022/08/29 08:36:29;;;;;;;;;5.00;4.00;;;;;22.77;40.16;101479.03;5020068;28;45503;-80
2022/08/29 08:38:56;;;;;;;;;9.00;8.00;;;;;22.88;39.90;101471.41;5021129;28;45303;-80
2022/08/29 08:41:40;;;;;;;;;24.25;18.25;;;;;22.97;39.92;101467.47;5019345;28;45629;-81
2022/08/29 08:44:11;;;;;;;;;9.67;8.33;;;;;23.04;39.99;101473.44;5019842;28;47110;-81
2022/08/29 08:46:41;;;;;;;;;4.33;2.00;;;;;23.10;39.65;101471.38;5020163;28;45544;-81
2022/08/29 08:49:23;;;;;;;;;6.00;5.00;;;;;23.24;39.78;101473.44;5019012;28;45344;-81
2022/08/29 08:51:52;;;;;;;;;3.67;3.00;;;;;23.34;38.94;101479.28;5020697;28;45416;-81
2022/08/29 08:54:24;;;;;;;;;4.67;3.00;;;;;23.42;39.31;101477.09;5020279;28;46060;-81
2022/08/29 08:57:03;;;;;;;;;5.00;3.00;;;;;23.53;38.66;101485.53;5019270;28;45459;-81
2022/08/29 08:59:41;;;;;;;;;3.00;3.00;;;;;23.65;38.71;101476.03;5020609;28;45186;-81
2022/08/29 09:02:22;;;;;;;;;2.67;2.67;;;;;23.81;38.26;101478.91;5020473;28;45414;-81
2022/08/29 09:05:20;;;;;;;;;6.33;5.33;;;;;23.87;37.97;101475.03;5019195;28;47078;-81
2022/08/29 09:07:59;;;;;;;;;11.00;8.00;;;;;23.91;37.80;101482.91;5018945;28;45457;-81
2022/08/29 09:10:47;;;;;;;;;10.00;9.67;;;;;23.95;38.22;101481.81;5020589;28;45398;-81
2022/08/29 09:13:35;;;;;;;;;10.00;9.00;;;;;24.00;38.32;101486.97;5018593;28;45482;-81
2022/08/29 09:16:07;;;;;;;;;14.00;11.25;;;;;24.06;37.83;101485.78;5020572;28;46052;-81
2022/08/29 09:18:39;;;;;;;;;15.75;15.50;;;;;24.09;37.26;101483.84;5019162;28;45355;-81
2022/08/29 09:21:11;;;;;;;;;5.67;4.33;;;;;24.11;37.71;101487.34;5019221;28;45265;-80
2022/08/29 09:23:54;;;;;;;;;8.00;5.00;;;;;24.15;38.05;101482.66;5020111;28;45422;-81
2022/08/29 09:26:21;;;;;;;;;9.33;9.33;;;;;24.23;37.96;101482.31;5018696;28;47458;-82
2022/08/29 09:28:48;;;;;;;;;6.00;5.00;;;;;24.25;37.61;101480.41;5019443;28;45862;-80
2022/08/29 09:31:31;;;;;;;;;9.33;6.33;;;;;24.24;37.32;101479.50;5020819;28;45321;-80
2022/08/29 09:34:03;;;;;;;;;4.00;4.00;;;;;24.28;37.33;101481.13;5023290;28;45324;-80
2022/08/29 09:37:00;;;;;;;;;7.00;5.00;;;;;24.33;37.65;101484.47;5020183;28;45679;-80
2022/08/29 09:39:31;;;;;;;;;3.67;3.67;;;;;24.41;37.52;101481.41;4996758;28;45292;-80
2022/08/29 09:42:12;;;;;;;;;6.33;6.00;;;;;24.52;37.79;101480.88;5018772;28;45422;-80
2022/08/29 09:44:39;;;;;;;;;5.33;5.00;;;;;24.64;37.23;101482.94;5018463;28;45331;-80
2022/08/29 09:47:05;;;;;;;;;8.33;8.00;;;;;24.77;36.93;101481.38;5018076;28;48185;-80
2022/08/29 09:49:32;;;;;;;;;9.33;6.00;;;;;24.84;36.91;101481.94;5018771;28;45370;-80
2022/08/29 09:52:15;;;;;;;;;13.00;10.33;;;;;24.90;36.37;101475.34;5020702;28;45316;-81
2022/08/29 09:54:42;;;;;;;;;10.00;7.00;;;;;24.92;36.76;101482.41;5018799;28;45240;-81
2022/08/29 09:57:09;;;;;;;;;14.25;11.25;;;;;24.98;36.96;101473.13;5019627;28;46528;-81
2022/08/29 09:59:38;;;;;;;;;5.67;5.00;;;;;25.02;36.88;101466.59;5019280;28;45363;-81
2022/08/29 10:02:29;;;;;;;;;12.33;8.67;;;;;25.10;36.59;101464.41;5019901;28;45329;-81
2022/08/29 10:05:05;;;;;;;;;19.75;15.00;;;;;25.18;36.65;101462.22;5023750;28;45177;-81
2022/08/29 10:07:35;;;;;;;;;4.33;3.33;;;;;25.25;36.60;101466.28;5020473;28;45553;-81
2022/08/29 10:10:28;;;;;;;;;7.33;6.33;;;;;25.30;36.56;101466.94;5021959;28;45213;-82
2022/08/29 10:13:10;;;;;;;;;5.00;5.00;;;;;25.34;36.08;101464.06;5019353;28;45335;-82
2022/08/29 10:16:00;;;;;;;;;6.33;5.00;;;;;25.43;36.31;101472.53;5018710;28;45390;-82
2022/08/29 10:18:50;;;;;;;;;7.33;4.00;;;;;25.50;36.48;101463.16;5017646;28;46991;-82
2022/08/29 10:21:46;;;;;;;;;10.25;10.25;;;;;25.60;36.29;101466.19;5019965;28;45423;-82
2022/08/29 10:24:53;;;;;;;;;9.33;6.67;;;;;25.67;35.66;101467.63;5017871;28;45398;-81
2022/08/29 10:27:59;;;;;;;;;8.00;5.00;;;;;25.72;36.31;101451.19;5016304;28;45403;-82
2022/08/29 10:31:03;;;;;;;;;10.00;7.67;;;;;25.82;36.01;101465.91;5017192;28;47086;-81
2022/08/29 10:33:53;;;;;;;;;15.00;12.25;;;;;25.92;35.62;101448.25;5018483;28;45653;-81
2022/08/29 10:36:31;;;;;;;;;8.00;7.50;;;;;26.08;35.84;101442.84;5010869;28;45268;-83
2022/08/29 10:39:34;;;;;;;;;5.00;4.67;;;;;26.20;35.94;101449.38;5017290;28;45501;-80
2022/08/29 10:42:11;;;;;;;;;7.33;7.33;;;;;26.35;35.33;101445.75;5018072;28;48560;-82
2022/08/29 10:44:58;;;;;;;;;6.00;5.00;;;;;26.50;35.03;101448.53;5019266;28;45442;-82
2022/08/29 10:47:34;;;;;;;;;16.25;12.25;;;;;26.64;35.17;101450.44;5018223;28;45360;-82
2022/08/29 10:50:18;;;;;;;;;9.67;8.33;;;;;26.77;35.33;101444.19;5019502;28;45237;-82
2022/08/29 10:52:55;;;;;;;;;8.00;7.00;;;;;26.91;34.59;101451.47;5017229;28;47281;-82
2022/08/29 10:55:39;;;;;;;;;5.33;4.33;;;;;27.01;34.61;101443.66;5019168;28;45303;-82
2022/08/29 10:58:18;;;;;;;;;6.00;4.33;;;;;27.11;34.16;101435.88;5018534;28;45342;-82
2022/08/29 11:01:03;;;;;;;;;10.67;10.67;;;;;27.12;34.44;101433.06;5018275;28;45316;-82
2022/08/29 11:03:30;;;;;;;;;14.00;13.50;;;;;27.23;34.18;101440.53;5018526;28;46222;-82
2022/08/29 11:06:11;;;;;;;;;14.00;12.00;;;;;27.33;34.32;101436.28;5016677;28;45465;-83
2022/08/29 11:08:49;;;;;;;;;9.00;7.67;;;;;27.44;33.88;101433.75;5017442;28;45329;-83
2022/08/29 11:11:18;;;;;;;;;12.00;10.25;;;;;27.54;33.79;101427.78;5019137;28;45348;-81
2022/08/29 11:13:48;;;;;;;;;16.67;13.00;;;;;27.66;33.89;101433.25;5020221;28;48325;-81
2022/08/29 11:16:28;;;;;;;;;20.25;18.75;;;;;27.78;33.77;101438.84;5019915;28;45300;-81
2022/08/29 11:19:25;;;;;;;;;11.50;11.50;;;;;27.86;32.82;101432.00;5020417;28;45342;-82
2022/08/29 11:22:05;;;;;;;;;14.00;13.25;;;;;27.92;33.46;101434.28;5018077;28;45534;-81
2022/08/29 11:24:34;;;;;;;;;4.33;4.33;;;;;28.07;33.26;101429.72;5021702;28;45357;-82
2022/08/29 11:27:12;;;;;;;;;5.33;5.33;;;;;28.24;33.09;101430.41;5021576;28;45384;-81
2022/08/29 11:29:58;;;;;;;;;5.33;5.33;;;;;28.42;32.64;101425.59;5021338;28;45193;-81
2022/08/29 11:32:40;;;;;;;;;5.00;3.00;;;;;28.64;32.33;101427.75;5020171;28;45623;-82
2022/08/29 11:35:19;;;;;;;;;5.00;4.33;;;;;28.74;32.00;101423.44;5021619;28;46367;-81
2022/08/29 11:38:20;;;;;;;;;5.00;5.00;;;;;28.82;31.37;101429.19;5020468;28;45772;-81
2022/08/29 11:41:03;;;;;;;;;5.00;5.00;;;;;28.93;31.81;101415.72;4998460;28;45325;-81
2022/08/29 11:43:36;;;;;;;;;5.67;5.33;;;;;29.09;31.36;101414.69;5004951;28;45392;-81